Lewis, CO (81327)

10:15 AM MDT on September 25, 2016 (GMT -0600)
East Lewis | | Change Station

Elev 6909 ft 37.52 °N, 108.63 °W | Updated 13 seconds ago

Clear
Clear
59.7 °F
Feels Like 59.7 °F
N
1.0
Wind Variable Wind from WNW
Gusts 4.0 mph

Today
High -- | Low -- °F
--% Chance of Precip.
Yesterday
High -- | Low -- °F
Precip. -- in
Pressure 30.29 in
Visibility 10.0 miles
Clouds Clear
Dew Point 36 °F
Humidity 41%
Rainfall 0.00 in
Snow Depth Not available.
7:05 AM 7:06 PM
Waning Crescent, 26% visible
METAR KCEZ 251553Z AUTO 00000KT 10SM CLR 12/02 A3041 RMK AO2 SLP255 T01170017 $
Pressure 30.29 in
Visibility 10.0 miles
Clouds Clear
Dew Point 36 °F
Humidity 41%
Rainfall 0.00 in
Snow Depth Not available.
7:05 AM 7:06 PM
Waning Crescent, 26% visible
METAR KCEZ 251553Z AUTO 00000KT 10SM CLR 12/02 A3041 RMK AO2 SLP255 T01170017 $

10-Day Weather Forecast

Almanac

Astronomy

Sep. 25, 2016 Rise Set
Actual Time
Civil Twilight
Nautical Twilight
Astronomical Twilight
Moon
Length of Visible Light
Length of Day
Tomorrow will be .
, % of the Moon is Illuminated

Today's Extremes

State Highs State Lows

Community

WunderPhotos

Upload Photos

1,941,649 photos uploaded!

WunderBlog® & News

Nearby

Air Quality

  Air Quality AQ Index Pollutant
Not available.

Snow Depth

Station Depth Elevation

Earthquake Activity

City Distance Mag. Time & Date
Minimum magnitude displayed is 2.5.

Coastal Water Temperatures

Place Temperature

Stations

Nearby Weather Stations

Station Location Temp. Windchill Dew Point Humidity Wind Precip. Elev Updated Type
                   

Watches & Warnings

There are currently no watches in effect.